Time;durP1;ratioP1;P1;durP2;ratioP2;P2;SDS_P1;SDS_P2;PMS_P1;PMS_P2;Temp;Humidity;BMP_temperature;BMP_pressure;BME280_temperature;BME280_humidity;BME280_pressure;Samples;Min_cycle;Max_cycle;Signal;HPM_P1;HPM_P2
2021/11/03 00:02:05;;;;;;;;;;;;;;;;;;5078423;28;19924;-90
2021/11/03 00:04:31;;;;;;;;;;;;;;;;;;5072893;28;19932;-89
2021/11/03 00:06:58;;;;;;;;;;;;;;;;;;5076344;28;19946;-89
2021/11/03 00:09:24;;;;;;;;;;;;;;;;;;5071946;28;19925;-89
2021/11/03 00:11:50;;;;;;;;;;;;;;;;;;5059227;28;19924;-89
2021/11/03 00:14:16;;;;;;;;;;;;;;;;;;5053569;28;19933;-90
2021/11/03 00:16:42;;;;;;;;;;;;;;;;;;5053246;28;19932;-90
2021/11/03 00:19:09;;;;;;;;;;;;;;;;;;5052927;28;19932;-90
2021/11/03 00:21:35;;;;;;;;;;;;;;;;;;5054764;28;19937;-90
2021/11/03 00:24:01;;;;;;;;;;;;;;;;;;5076628;28;19954;-90
2021/11/03 00:26:27;;;;;;;;;;;;;;;;;;5065139;28;19929;-91
2021/11/03 00:28:54;;;;;;;;;;;;;;;;;;5060254;28;19925;-91
2021/11/03 00:31:20;;;;;;;;;;;;;;;;;;5060727;28;19924;-90
2021/11/03 00:33:46;;;;;;;;;;;;;;;;;;5060630;28;19947;-90
2021/11/03 00:36:12;;;;;;;;;;;;;;;;;;5060883;28;19933;-90
2021/11/03 00:38:39;;;;;;;;;;;;;;;;;;5061669;28;19955;-90
2021/11/03 00:41:05;;;;;;;;;;;;;;;;;;5056923;28;19933;-90
2021/11/03 00:43:31;;;;;;;;;;;;;;;;;;5058263;28;19933;-89
2021/11/03 00:45:59;;;;;;;;;;;;;;;;;;5066462;28;19932;-90
2021/11/03 00:48:25;;;;;;;;;;;;;;;;;;5069837;28;19928;-90
2021/11/03 00:50:52;;;;;;;;;;;;;;;;;;5070380;28;19947;-91
2021/11/03 00:53:18;;;;;;;;;;;;;;;;;;5070155;28;19925;-91
2021/11/03 00:55:44;;;;;;;;;;;;;;;;;;5065981;28;19958;-91
2021/11/03 00:58:10;;;;;;;;;;;;;;;;;;5067525;28;19932;-91
2021/11/03 01:00:36;;;;;;;;;;;;;;;;;;5068519;28;19933;-91
2021/11/03 01:03:03;;;;;;;;;;;;;;;;;;5068529;28;19930;-91
2021/11/03 01:05:29;;;;;;;;;;;;;;;;;;5069182;28;21350;-91
2021/11/03 01:07:55;;;;;;;;;;;;;;;;;;5069219;28;20376;-89
2021/11/03 01:10:22;;;;;;;;;;;;;;;;;;5067891;28;20381;-88
2021/11/03 01:12:48;;;;;;;;;;;;;;;;;;5068354;28;20384;-89
2021/11/03 01:15:14;;;;;;;;;;;;;;;;;;5068343;28;20492;-89
2021/11/03 01:17:41;;;;;;;;;;;;;;;;;;5067807;28;20470;-89
2021/11/03 01:20:07;;;;;;;;;;;;;;;;;;5069427;28;19933;-88
2021/11/03 01:22:33;;;;;;;;;;;;;;;;;;5069449;28;19954;-88
2021/11/03 01:24:59;;;;;;;;;;;;;;;;;;5068117;28;19955;-88
2021/11/03 01:27:26;;;;;;;;;;;;;;;;;;5068395;28;19932;-89
2021/11/03 01:29:52;;;;;;;;;;;;;;;;;;5068983;28;19924;-90
2021/11/03 01:32:18;;;;;;;;;;;;;;;;;;5068838;28;19947;-92
2021/11/03 01:34:44;;;;;;;;;;;;;;;;;;5069179;28;19950;-90
2021/11/03 01:37:11;;;;;;;;;;;;;;;;;;5069817;28;19932;-91
2021/11/03 01:39:37;;;;;;;;;;;;;;;;;;5068859;28;19955;-90
2021/11/03 01:42:03;;;;;;;;;;;;;;;;;;5068495;28;19932;-89
2021/11/03 01:44:29;;;;;;;;;;;;;;;;;;5067869;28;20625;-90
2021/11/03 01:46:56;;;;;;;;;;;;;;;;;;5058339;28;20690;-89
2021/11/03 01:49:22;;;;;;;;;;;;;;;;;;5057999;28;19933;-89
2021/11/03 01:51:48;;;;;;;;;;;;;;;;;;5057832;28;19932;-89
2021/11/03 01:54:14;;;;;;;;;;;;;;;;;;5058147;28;19932;-89
2021/11/03 01:56:41;;;;;;;;;;;;;;;;;;5083296;28;19924;-89
2021/11/03 01:59:07;;;;;;;;;;;;;;;;;;5059443;28;19925;-89
2021/11/03 02:01:33;;;;;;;;;;;;;;;;;;5059238;28;19933;-89
2021/11/03 02:03:59;;;;;;;;;;;;;;;;;;5059435;28;19937;-89
2021/11/03 02:06:26;;;;;;;;;;;;;;;;;;5055954;28;19986;-89
2021/11/03 02:08:52;;;;;;;;;;;;;;;;;;5056616;28;19942;-89
2021/11/03 02:11:18;;;;;;;;;;;;;;;;;;5058181;28;19955;-89
2021/11/03 02:13:44;;;;;;;;;;;;;;;;;;5058376;28;19925;-89
2021/11/03 02:16:11;;;;;;;;;;;;;;;;;;5059032;28;19951;-89
2021/11/03 02:18:37;;;;;;;;;;;;;;;;;;5058822;28;19933;-89
2021/11/03 02:21:03;;;;;;;;;;;;;;;;;;5059152;28;19956;-88
2021/11/03 02:23:29;;;;;;;;;;;;;;;;;;5059476;28;19933;-89
2021/11/03 02:25:55;;;;;;;;;;;;;;;;;;5059407;28;20012;-90
2021/11/03 02:28:22;;;;;;;;;;;;;;;;;;5058829;28;19955;-89
2021/11/03 02:30:48;;;;;;;;;;;;;;;;;;5057815;28;19924;-89
2021/11/03 02:33:14;;;;;;;;;;;;;;;;;;5056525;28;19955;-90
2021/11/03 02:35:40;;;;;;;;;;;;;;;;;;5083193;28;19924;-89
2021/11/03 02:38:07;;;;;;;;;;;;;;;;;;5080206;28;19958;-90
2021/11/03 02:40:33;;;;;;;;;;;;;;;;;;5058396;28;19932;-89
2021/11/03 02:42:59;;;;;;;;;;;;;;;;;;5057698;28;19933;-90
2021/11/03 02:45:25;;;;;;;;;;;;;;;;;;5061688;28;19933;-89
2021/11/03 02:47:52;;;;;;;;;;;;;;;;;;5068290;28;19936;-89
2021/11/03 02:50:18;;;;;;;;;;;;;;;;;;5068261;28;19925;-90
2021/11/03 02:52:44;;;;;;;;;;;;;;;;;;5068864;28;19925;-90
2021/11/03 02:55:10;;;;;;;;;;;;;;;;;;5067891;28;19978;-90
2021/11/03 02:57:37;;;;;;;;;;;;;;;;;;5068552;28;19925;-90
2021/11/03 03:00:03;;;;;;;;;;;;;;;;;;5068258;28;20014;-90
2021/11/03 03:02:29;;;;;;;;;;;;;;;;;;5068233;28;19937;-89
2021/11/03 03:04:55;;;;;;;;;;;;;;;;;;5069247;28;19932;-90
2021/11/03 03:07:22;;;;;;;;;;;;;;;;;;5069521;28;19932;-89
2021/11/03 03:09:48;;;;;;;;;;;;;;;;;;5070487;28;19925;-89
2021/11/03 03:12:15;;;;;;;;;;;;;;;;;;5072341;28;19924;-90
2021/11/03 03:14:42;;;;;;;;;;;;;;;;;;5071847;28;19947;-90
2021/11/03 03:17:09;;;;;;;;;;;;;;;;;;5072158;28;19933;-90
2021/11/03 03:19:35;;;;;;;;;;;;;;;;;;5071628;28;19928;-90
2021/11/03 03:22:01;;;;;;;;;;;;;;;;;;5071185;28;19933;-90
2021/11/03 03:24:27;;;;;;;;;;;;;;;;;;5071533;28;19936;-90
2021/11/03 03:26:54;;;;;;;;;;;;;;;;;;5071749;28;19932;-90
2021/11/03 03:29:20;;;;;;;;;;;;;;;;;;5071239;28;20005;-90
2021/11/03 03:31:46;;;;;;;;;;;;;;;;;;5071771;28;19978;-90
2021/11/03 03:34:12;;;;;;;;;;;;;;;;;;5071554;28;19924;-90
2021/11/03 03:36:39;;;;;;;;;;;;;;;;;;5070824;28;19928;-90
2021/11/03 03:39:05;;;;;;;;;;;;;;;;;;5070499;28;19955;-91
2021/11/03 03:41:31;;;;;;;;;;;;;;;;;;5069268;28;19933;-90
2021/11/03 03:43:57;;;;;;;;;;;;;;;;;;5069684;28;19958;-90
2021/11/03 03:46:23;;;;;;;;;;;;;;;;;;5067995;28;19963;-90
2021/11/03 03:48:50;;;;;;;;;;;;;;;;;;5069788;28;19932;-90
2021/11/03 03:51:16;;;;;;;;;;;;;;;;;;5071215;28;19925;-91
2021/11/03 03:53:42;;;;;;;;;;;;;;;;;;5070857;28;19948;-90
2021/11/03 03:56:08;;;;;;;;;;;;;;;;;;5070997;28;19925;-91
2021/11/03 03:58:36;;;;;;;;;;;;;;;;;;5070418;28;19933;-91
2021/11/03 04:01:02;;;;;;;;;;;;;;;;;;5071505;28;19925;-91
2021/11/03 04:03:28;;;;;;;;;;;;;;;;;;5071123;28;19924;-91
2021/11/03 04:05:55;;;;;;;;;;;;;;;;;;5070689;28;19982;-91
2021/11/03 04:08:23;;;;;;;;;;;;;;;;;;5071151;28;19931;-91
2021/11/03 04:10:50;;;;;;;;;;;;;;;;;;5070927;28;19989;-91
2021/11/03 04:13:16;;;;;;;;;;;;;;;;;;5070748;28;20441;-91
2021/11/03 04:15:42;;;;;;;;;;;;;;;;;;5070725;28;20448;-92
2021/11/03 04:18:08;;;;;;;;;;;;;;;;;;5070707;28;19939;-91
2021/11/03 04:20:35;;;;;;;;;;;;;;;;;;5069947;28;19932;-92
2021/11/03 04:23:01;;;;;;;;;;;;;;;;;;5069252;28;19933;-91
2021/11/03 04:25:27;;;;;;;;;;;;;;;;;;5069454;28;19962;-91
2021/11/03 04:27:53;;;;;;;;;;;;;;;;;;5068621;28;19970;-92
2021/11/03 04:30:20;;;;;;;;;;;;;;;;;;5070393;28;19936;-92
2021/11/03 04:32:46;;;;;;;;;;;;;;;;;;5070732;28;19928;-92
2021/11/03 04:35:12;;;;;;;;;;;;;;;;;;5070491;28;19936;-93
2021/11/03 04:37:38;;;;;;;;;;;;;;;;;;5070166;28;19985;-93
2021/11/03 04:40:05;;;;;;;;;;;;;;;;;;5069236;28;19978;-94
2021/11/03 04:42:31;;;;;;;;;;;;;;;;;;5068839;28;19955;-93
2021/11/03 04:44:57;;;;;;;;;;;;;;;;;;5066434;28;19928;-93
2021/11/03 04:47:23;;;;;;;;;;;;;;;;;;5058988;28;19932;-93
2021/11/03 04:49:50;;;;;;;;;;;;;;;;;;5059870;28;19959;-93
2021/11/03 04:52:16;;;;;;;;;;;;;;;;;;5060426;28;19947;-93
2021/11/03 04:54:42;;;;;;;;;;;;;;;;;;5059879;28;19955;-93
2021/11/03 04:57:08;;;;;;;;;;;;;;;;;;5059021;28;19933;-94
2021/11/03 04:59:35;;;;;;;;;;;;;;;;;;5057484;28;20432;-93
2021/11/03 05:02:01;;;;;;;;;;;;;;;;;;5055270;28;19971;-93
2021/11/03 05:04:27;;;;;;;;;;;;;;;;;;5054123;28;19943;-93
2021/11/03 05:06:53;;;;;;;;;;;;;;;;;;5055856;28;19978;-93
2021/11/03 05:09:20;;;;;;;;;;;;;;;;;;5056947;28;19947;-92
2021/11/03 05:11:46;;;;;;;;;;;;;;;;;;5056598;28;19925;-93
2021/11/03 05:14:12;;;;;;;;;;;;;;;;;;5055635;28;20376;-92
2021/11/03 05:16:38;;;;;;;;;;;;;;;;;;5058783;28;19951;-93
2021/11/03 05:19:05;;;;;;;;;;;;;;;;;;5058620;28;19972;-92
2021/11/03 05:21:31;;;;;;;;;;;;;;;;;;5059561;28;20412;-93
2021/11/03 05:23:57;;;;;;;;;;;;;;;;;;5060632;28;20297;-92
2021/11/03 05:26:23;;;;;;;;;;;;;;;;;;5059397;28;20871;-92
2021/11/03 05:28:51;;;;;;;;;;;;;;;;;;5059963;28;19928;-92
2021/11/03 05:31:18;;;;;;;;;;;;;;;;;;5058128;28;19968;-93
2021/11/03 05:33:44;;;;;;;;;;;;;;;;;;5057617;28;19925;-92
2021/11/03 05:36:10;;;;;;;;;;;;;;;;;;5058898;28;19984;-92
2021/11/03 05:38:36;;;;;;;;;;;;;;;;;;5059396;28;19994;-92
2021/11/03 05:41:03;;;;;;;;;;;;;;;;;;5060127;28;19933;-92
2021/11/03 05:43:29;;;;;;;;;;;;;;;;;;5059657;28;19929;-94
2021/11/03 05:45:55;;;;;;;;;;;;;;;;;;5064453;28;19925;-94
2021/11/03 05:48:24;;;;;;;;;;;;;;;;;;5068203;28;19925;-94
2021/11/03 05:50:51;;;;;;;;;;;;;;;;;;5069383;28;19933;-93
2021/11/03 05:53:17;;;;;;;;;;;;;;;;;;5069596;28;19940;-93
2021/11/03 05:55:44;;;;;;;;;;;;;;;;;;5069059;28;19928;-96
2021/11/03 05:58:10;;;;;;;;;;;;;;;;;;5067985;28;19933;-96
2021/11/03 06:00:36;;;;;;;;;;;;;;;;;;5070008;28;19924;-96
2021/11/03 06:03:02;;;;;;;;;;;;;;;;;;5069861;28;19928;-95
2021/11/03 06:05:29;;;;;;;;;;;;;;;;;;5069862;28;19995;-95
2021/11/03 06:07:55;;;;;;;;;;;;;;;;;;5069461;28;19928;-95
2021/11/03 06:10:23;;;;;;;;;;;;;;;;;;5069811;28;19924;-95
2021/11/03 06:12:49;;;;;;;;;;;;;;;;;;5069508;28;19932;-96
2021/11/03 06:15:16;;;;;;;;;;;;;;;;;;5070155;28;19955;-95
2021/11/03 06:17:42;;;;;;;;;;;;;;;;;;5068817;28;19933;-93
2021/11/03 06:20:09;;;;;;;;;;;;;;;;;;5069076;28;19947;-95
2021/11/03 06:22:35;;;;;;;;;;;;;;;;;;5068868;28;19933;-94
2021/11/03 06:25:03;;;;;;;;;;;;;;;;;;5068873;28;19978;-94
2021/11/03 06:27:29;;;;;;;;;;;;;;;;;;5068292;28;19925;-95
2021/11/03 06:29:55;;;;;;;;;;;;;;;;;;5068954;28;19929;-95
2021/11/03 06:32:22;;;;;;;;;;;;;;;;;;5068341;28;19925;-95
2021/11/03 06:34:48;;;;;;;;;;;;;;;;;;5068485;28;19932;-94
2021/11/03 06:37:14;;;;;;;;;;;;;;;;;;5070103;28;19955;-95
2021/11/03 06:39:40;;;;;;;;;;;;;;;;;;5071601;28;19954;-95
2021/11/03 06:42:07;;;;;;;;;;;;;;;;;;5070561;28;19925;-96
2021/11/03 06:44:33;;;;;;;;;;;;;;;;;;5071525;28;21035;-95
2021/11/03 06:47:02;;;;;;;;;;;;;;;;;;5072455;28;19924;-97
2021/11/03 06:49:28;;;;;;;;;;;;;;;;;;5073303;28;19936;-96
2021/11/03 06:51:55;;;;;;;;;;;;;;;;;;5072558;28;19955;-94
2021/11/03 06:54:22;;;;;;;;;;;;;;;;;;5072985;28;19935;-94
2021/11/03 06:56:48;;;;;;;;;;;;;;;;;;5068138;28;19939;-95
2021/11/03 06:59:14;;;;;;;;;;;;;;;;;;5070584;28;19933;-95
2021/11/03 07:01:41;;;;;;;;;;;;;;;;;;5070897;28;20380;-96
2021/11/03 07:04:08;;;;;;;;;;;;;;;;;;5070884;28;19933;-95
2021/11/03 07:06:34;;;;;;;;;;;;;;;;;;5069287;28;19979;-95
2021/11/03 07:09:01;;;;;;;;;;;;;;;;;;5069621;28;20396;-93
2021/11/03 07:11:28;;;;;;;;;;;;;;;;;;5069339;28;19933;-96
2021/11/03 07:13:54;;;;;;;;;;;;;;;;;;5066519;28;19932;-95
2021/11/03 07:16:21;;;;;;;;;;;;;;;;;;5067076;28;19947;-93
2021/11/03 07:18:47;;;;;;;;;;;;;;;;;;5068127;28;19928;-95
2021/11/03 07:21:13;;;;;;;;;;;;;;;;;;5071249;28;20388;-94
2021/11/03 07:23:40;;;;;;;;;;;;;;;;;;5071208;28;19958;-94
2021/11/03 07:26:08;;;;;;;;;;;;;;;;;;5072881;28;19939;-95
2021/11/03 07:28:36;;;;;;;;;;;;;;;;;;5071316;28;19928;-94
2021/11/03 07:31:02;;;;;;;;;;;;;;;;;;5068633;28;19924;-95
2021/11/03 07:33:29;;;;;;;;;;;;;;;;;;5068020;28;20627;-94
2021/11/03 07:35:56;;;;;;;;;;;;;;;;;;5070739;28;20343;-94
2021/11/03 07:38:22;;;;;;;;;;;;;;;;;;5071202;28;20931;-93
2021/11/03 07:40:48;;;;;;;;;;;;;;;;;;5071457;28;20141;-94
2021/11/03 07:43:14;;;;;;;;;;;;;;;;;;5071100;28;19924;-95
2021/11/03 07:45:41;;;;;;;;;;;;;;;;;;5071020;28;19960;-95
2021/11/03 07:48:17;;;;;;;;;;;;;;;;;;5071350;28;19924;-96
2021/11/03 07:50:43;;;;;;;;;;;;;;;;;;5069643;28;19942;-96
2021/11/03 07:53:10;;;;;;;;;;;;;;;;;;5069953;28;19988;-96
2021/11/03 07:55:36;;;;;;;;;;;;;;;;;;5063438;28;19932;-96
2021/11/03 07:58:02;;;;;;;;;;;;;;;;;;5066019;28;20621;-96
2021/11/03 08:00:29;;;;;;;;;;;;;;;;;;5065233;28;19935;-96
2021/11/03 08:02:55;;;;;;;;;;;;;;;;;;5068474;28;19925;-96
2021/11/03 08:08:02;;;;;;;;;;;;;;;;;;5068118;28;19939;-96
2021/11/03 08:13:05;;;;;;;;;;;;;;;;;;3778026;22;19932;-96
2021/11/03 08:15:31;;;;;;;;;;;;;;;;;;5111717;28;20366;-95
2021/11/03 08:17:57;;;;;;;;;;;;;;;;;;5111878;28;19939;-96
2021/11/03 08:20:25;;;;;;;;;;;;;;;;;;5110456;28;19932;-96
2021/11/03 08:22:54;;;;;;;;;;;;;;;;;;5284021;22;20708;-97
2021/11/03 08:25:20;;;;;;;;;;;;;;;;;;5181115;22;19939;-96
2021/11/03 08:27:47;;;;;;;;;;;;;;;;;;5175907;22;19939;-96
2021/11/03 08:30:20;;;;;;;;;;;;;;;;;;5080506;28;19929;-96
2021/11/03 08:32:46;;;;;;;;;;;;;;;;;;5069822;28;20026;-96
2021/11/03 08:35:13;;;;;;;;;;;;;;;;;;5069068;28;19955;-96
2021/11/03 08:37:39;;;;;;;;;;;;;;;;;;5071317;28;19943;-96
2021/11/03 08:40:05;;;;;;;;;;;;;;;;;;5068932;28;19936;-96
2021/11/03 08:42:32;;;;;;;;;;;;;;;;;;5069152;28;19932;-96
2021/11/03 08:44:58;;;;;;;;;;;;;;;;;;5071645;28;19954;-96
2021/11/03 08:47:25;;;;;;;;;;;;;;;;;;5071910;28;19933;-95
2021/11/03 08:49:51;;;;;;;;;;;;;;;;;;5070389;28;19932;-96
2021/11/03 08:52:17;;;;;;;;;;;;;;;;;;5069781;28;19924;-96
2021/11/03 08:54:45;;;;;;;;;;;;;;;;;;5069461;28;19947;-95
2021/11/03 08:57:11;;;;;;;;;;;;;;;;;;5068681;28;19932;-96
2021/11/03 08:59:38;;;;;;;;;;;;;;;;;;5068413;28;20023;-96
2021/11/03 09:02:04;;;;;;;;;;;;;;;;;;5069483;28;19963;-96
2021/11/03 09:04:31;;;;;;;;;;;;;;;;;;5071188;28;19933;-96
2021/11/03 09:07:11;;;;;;;;;;;;;;;;;;5072727;28;19970;-96
2021/11/03 09:09:39;;;;;;;;;;;;;;;;;;5072589;28;19928;-96
2021/11/03 09:12:05;;;;;;;;;;;;;;;;;;5070084;28;19935;-96
2021/11/03 09:14:32;;;;;;;;;;;;;;;;;;5071211;28;19924;-96
2021/11/03 09:16:58;;;;;;;;;;;;;;;;;;5069462;28;20436;-96
2021/11/03 09:19:24;;;;;;;;;;;;;;;;;;5070986;28;19931;-95
2021/11/03 09:21:50;;;;;;;;;;;;;;;;;;5072234;28;19924;-95
2021/11/03 09:24:17;;;;;;;;;;;;;;;;;;5068465;28;19933;-96
2021/11/03 09:26:43;;;;;;;;;;;;;;;;;;5067526;28;19933;-95
2021/11/03 09:29:10;;;;;;;;;;;;;;;;;;5068880;28;19933;-96
2021/11/03 09:31:37;;;;;;;;;;;;;;;;;;5070217;28;19932;-96
2021/11/03 09:34:03;;;;;;;;;;;;;;;;;;5069253;28;19931;-95
2021/11/03 09:36:29;;;;;;;;;;;;;;;;;;5066141;28;19932;-96
2021/11/03 09:38:56;;;;;;;;;;;;;;;;;;5067930;28;19933;-94
2021/11/03 09:41:22;;;;;;;;;;;;;;;;;;5069081;28;19932;-96
2021/11/03 09:43:48;;;;;;;;;;;;;;;;;;5068969;28;20670;-96
2021/11/03 09:46:14;;;;;;;;;;;;;;;;;;5069238;28;20481;-94
2021/11/03 09:48:41;;;;;;;;;;;;;;;;;;5070860;28;19924;-96
2021/11/03 09:51:07;;;;;;;;;;;;;;;;;;5068207;28;19925;-96
2021/11/03 09:53:33;;;;;;;;;;;;;;;;;;5068145;28;19933;-95
2021/11/03 09:55:59;;;;;;;;;;;;;;;;;;5068459;28;19929;-95
2021/11/03 09:58:29;;;;;;;;;;;;;;;;;;5070022;28;19952;-96
2021/11/03 10:00:56;;;;;;;;;;;;;;;;;;5068808;28;19932;-95
2021/11/03 10:03:22;;;;;;;;;;;;;;;;;;5066205;28;19933;-95
2021/11/03 10:05:48;;;;;;;;;;;;;;;;;;5068968;28;19932;-95
2021/11/03 10:08:15;;;;;;;;;;;;;;;;;;5066902;28;19924;-96
2021/11/03 10:10:44;;;;;;;;;;;;;;;;;;5066903;28;20273;-96
2021/11/03 10:13:17;;;;;;;;;;;;;;;;;;5068101;28;19974;-96
2021/11/03 10:15:43;;;;;;;;;;;;;;;;;;5070193;28;20713;-96
2021/11/03 10:18:09;;;;;;;;;;;;;;;;;;5072394;28;19940;-96
2021/11/03 10:20:40;;;;;;;;;;;;;;;;;;5076089;28;19932;-96
2021/11/03 10:23:06;;;;;;;;;;;;;;;;;;5073977;28;20350;-94
2021/11/03 10:25:32;;;;;;;;;;;;;;;;;;5073217;28;19974;-96
2021/11/03 10:27:59;;;;;;;;;;;;;;;;;;5072326;28;19924;-95
2021/11/03 10:30:25;;;;;;;;;;;;;;;;;;5072940;28;19928;-96
2021/11/03 10:32:51;;;;;;;;;;;;;;;;;;5073712;28;19924;-96
2021/11/03 10:35:18;;;;;;;;;;;;;;;;;;5073400;28;19941;-96
2021/11/03 10:37:44;;;;;;;;;;;;;;;;;;5071929;28;19925;-96
2021/11/03 10:40:12;;;;;;;;;;;;;;;;;;5075016;28;19928;-96
2021/11/03 10:42:38;;;;;;;;;;;;;;;;;;5072016;28;19932;-96
2021/11/03 10:45:05;;;;;;;;;;;;;;;;;;5138587;22;19909;-96
2021/11/03 10:47:31;;;;;;;;;;;;;;;;;;5170016;22;19993;-96
2021/11/03 10:55:31;;;;;;;;;;;;;;;;;;5147916;22;20010;-96
2021/11/03 10:57:57;;;;;;;;;;;;;;;;;;5103577;22;20451;-96
2021/11/03 11:00:23;;;;;;;;;;;;;;;;;;5109580;22;19947;-96
2021/11/03 11:05:25;;;;;;;;;;;;;;;;;;5123524;22;19964;-96
2021/11/03 11:07:51;;;;;;;;;;;;;;;;;;5069519;28;19924;-93
2021/11/03 11:10:17;;;;;;;;;;;;;;;;;;5069910;28;19954;-93
2021/11/03 11:12:43;;;;;;;;;;;;;;;;;;5070665;28;19924;-94
2021/11/03 11:15:10;;;;;;;;;;;;;;;;;;5071439;28;19955;-94
2021/11/03 11:17:36;;;;;;;;;;;;;;;;;;5071538;28;19932;-93
2021/11/03 11:20:02;;;;;;;;;;;;;;;;;;5070933;28;20016;-93
2021/11/03 11:22:29;;;;;;;;;;;;;;;;;;5070836;28;19932;-95
2021/11/03 11:24:55;;;;;;;;;;;;;;;;;;5070662;28;19932;-95
2021/11/03 11:27:21;;;;;;;;;;;;;;;;;;5072857;28;19933;-95
2021/11/03 11:30:02;;;;;;;;;;;;;;;;;;5072504;28;19940;-96
2021/11/03 11:32:28;;;;;;;;;;;;;;;;;;5071727;28;19939;-96
2021/11/03 11:37:40;;;;;;;;;;;;;;;;;;5130175;23;19929;-96
2021/11/03 11:40:06;;;;;;;;;;;;;;;;;;5082224;28;19939;-96
2021/11/03 11:42:38;;;;;;;;;;;;;;;;;;5128739;22;19925;-96
2021/11/03 11:45:07;;;;;;;;;;;;;;;;;;5208719;22;19925;-94
2021/11/03 11:47:33;;;;;;;;;;;;;;;;;;5083100;28;19936;-96
2021/11/03 11:49:59;;;;;;;;;;;;;;;;;;5087221;28;19924;-96
2021/11/03 11:52:26;;;;;;;;;;;;;;;;;;5082158;28;19931;-96
2021/11/03 11:54:52;;;;;;;;;;;;;;;;;;5077814;28;19932;-96
2021/11/03 11:57:18;;;;;;;;;;;;;;;;;;5082797;28;19928;-94
2021/11/03 11:59:45;;;;;;;;;;;;;;;;;;5090252;28;20044;-96
2021/11/03 12:02:11;;;;;;;;;;;;;;;;;;5312474;22;19933;-95
2021/11/03 12:10:25;;;;;;;97.67;31.47;;;;;;;;;;5268915;22;19925;-96
2021/11/03 12:15:58;;;;;;;94.37;29.30;;;;;;;;;;5072493;28;20321;-96
2021/11/03 12:32:28;;;;;;;90.87;27.33;;;;;;;;;;5454183;23;20463;-96
2021/11/03 12:37:37;;;;;;;84.50;23.77;;;;;;;;;;5857309;22;20496;-96
2021/11/03 12:42:56;;;;;;;78.40;19.30;;;;;;;;;;5514999;22;20504;-96
2021/11/03 12:45:27;;;;;;;65.90;11.67;;;;;;;;;;5058300;28;20524;-96
2021/11/03 12:47:56;;;;;;;76.03;11.50;;;;;;;;;;5053488;28;21075;-95
2021/11/03 12:50:31;;;;;;;65.87;11.30;;;;;;;;;;5051016;28;20531;-96
2021/11/03 12:53:06;;;;;;;65.40;11.10;;;;;;;;;;5052606;28;20474;-95
2021/11/03 12:55:33;;;;;;;65.53;10.57;;;;;;;;;;5051366;28;20459;-93
2021/11/03 12:58:01;;;;;;;63.07;10.17;;;;;;;;;;5051750;28;20481;-96
2021/11/03 13:00:32;;;;;;;65.97;10.93;;;;;;;;;;5053006;28;20453;-95
2021/11/03 13:03:01;;;;;;;64.27;11.30;;;;;;;;;;5049482;28;20483;-96
2021/11/03 13:05:29;;;;;;;64.30;10.50;;;;;;;;;;5053444;28;20445;-94
2021/11/03 13:07:56;;;;;;;63.40;10.40;;;;;;;;;;5050930;28;20419;-96
2021/11/03 13:10:30;;;;;;;63.97;11.63;;;;;;;;;;5053483;28;20501;-96
2021/11/03 13:12:59;;;;;;;63.50;10.57;;;;;;;;;;5051417;28;20460;-96
2021/11/03 13:15:28;;;;;;;65.27;11.00;;;;;;;;;;5053139;28;20453;-96
2021/11/03 13:17:56;;;;;;;63.87;10.37;;;;;;;;;;5051528;28;20446;-95
2021/11/03 13:20:28;;;;;;;65.80;11.13;;;;;;;;;;5052586;28;20442;-96
2021/11/03 13:22:56;;;;;;;66.20;10.83;;;;;;;;;;5053458;28;20451;-94
2021/11/03 13:25:31;;;;;;;64.60;11.23;;;;;;;;;;5052450;28;20992;-96
2021/11/03 13:28:01;;;;;;;65.10;11.57;;;;;;;;;;5055295;28;20457;-96
2021/11/03 13:30:30;;;;;;;63.57;10.50;;;;;;;;;;5054621;28;20879;-96
2021/11/03 13:32:58;;;;;;;65.17;11.77;;;;;;;;;;5055303;28;20435;-96
2021/11/03 13:35:39;;;;;;;64.07;10.37;;;;;;;;;;5066406;23;20486;-96
2021/11/03 13:38:26;;;;;;;64.93;10.33;;;;;;;;;;5067177;28;20465;-96
2021/11/03 13:40:53;;;;;;;65.90;10.77;;;;;;;;;;5063816;28;20445;-95
2021/11/03 13:43:21;;;;;;;66.30;11.63;;;;;;;;;;5063822;28;20433;-96
2021/11/03 13:45:54;;;;;;;67.33;10.50;;;;;;;;;;5065160;28;20535;-96
2021/11/03 13:48:25;;;;;;;67.30;11.10;;;;;;;;;;5063670;28;20454;-95
2021/11/03 13:51:13;;;;;;;64.87;11.90;;;;;;;;;;5063694;28;20461;-95
2021/11/03 13:53:50;;;;;;;65.10;10.63;;;;;;;;;;5059899;28;21276;-96
2021/11/03 13:56:26;;;;;;;64.80;10.70;;;;;;;;;;5064409;28;20837;-96
2021/11/03 13:59:20;;;;;;;64.30;11.80;;;;;;;;;;5060096;28;20438;-94
2021/11/03 14:01:47;;;;;;;66.40;11.90;;;;;;;;;;5058232;28;20438;-93
2021/11/03 14:04:15;;;;;;;66.13;11.73;;;;;;;;;;5058322;28;20457;-92
2021/11/03 14:07:00;;;;;;;64.23;11.70;;;;;;;;;;5058265;28;20529;-91
2021/11/03 14:09:33;;;;;;;63.67;11.67;;;;;;;;;;5057614;28;20512;-94
2021/11/03 14:12:01;;;;;;;66.40;12.10;;;;;;;;;;5057534;28;20446;-93
2021/11/03 14:14:28;;;;;;;63.80;11.30;;;;;;;;;;5057933;28;20453;-95
2021/11/03 14:16:56;;;;;;;63.47;11.60;;;;;;;;;;5057815;28;20437;-93
2021/11/03 14:19:25;;;;;;;66.80;12.10;;;;;;;;;;5057430;28;20445;-91
2021/11/03 14:21:55;;;;;;;64.67;12.00;;;;;;;;;;5055890;28;20465;-91
2021/11/03 14:24:21;;;;;;;66.67;12.40;;;;;;;;;;5055791;28;20474;-91
2021/11/03 14:26:48;;;;;;;63.63;11.13;;;;;;;;;;5058624;28;20567;-95
2021/11/03 14:29:15;;;;;;;64.20;11.60;;;;;;;;;;5057491;28;20495;-93
2021/11/03 14:31:43;;;;;;;66.90;12.30;;;;;;;;;;5057584;28;20445;-91
2021/11/03 14:34:14;;;;;;;64.83;11.83;;;;;;;;;;5057267;28;20448;-91
2021/11/03 14:36:40;;;;;;;64.40;11.90;;;;;;;;;;5055052;28;20470;-92
2021/11/03 14:39:12;;;;;;;64.77;11.63;;;;;;;;;;5054571;28;20475;-96
2021/11/03 14:41:38;;;;;;;66.90;12.63;;;;;;;;;;5056980;28;20950;-93
2021/11/03 14:44:05;;;;;;;65.80;11.30;;;;;;;;;;5058386;28;20492;-96
2021/11/03 14:46:34;;;;;;;65.50;11.13;;;;;;;;;;5056393;28;20444;-92
2021/11/03 14:49:02;;;;;;;64.50;11.40;;;;;;;;;;5055341;28;20485;-93
2021/11/03 14:51:28;;;;;;;71.93;13.80;;;;;;;;;;5050250;28;20453;-93
2021/11/03 14:53:55;;;;;;;67.37;12.80;;;;;;;;;;5051694;28;20458;-93
2021/11/03 14:56:23;;;;;;;66.10;11.60;;;;;;;;;;5054634;28;20520;-94
2021/11/03 14:58:49;;;;;;;66.83;12.10;;;;;;;;;;5057392;28;20445;-91
2021/11/03 15:01:22;;;;;;;63.87;10.73;;;;;;;;;;5055744;28;20443;-95
2021/11/03 15:03:48;;;;;;;68.30;12.07;;;;;;;;;;5060351;28;20512;-93
2021/11/03 15:06:15;;;;;;;66.13;10.83;;;;;;;;;;5061330;28;20573;-93
2021/11/03 15:08:43;;;;;;;65.37;11.70;;;;;;;;;;5058436;28;20454;-93
2021/11/03 15:11:10;;;;;;;68.93;12.63;;;;;;;;;;5058220;28;20485;-91
2021/11/03 15:13:41;;;;;;;65.27;12.10;;;;;;;;;;5057272;28;20444;-90
2021/11/03 15:16:14;;;;;;;65.30;12.13;;;;;;;;;;5059127;28;20439;-95
2021/11/03 15:18:41;;;;;;;66.10;11.67;;;;;;;;;;5058722;28;20508;-90
2021/11/03 15:21:08;;;;;;;69.30;11.47;;;;;;;;;;5060631;28;20446;-91
2021/11/03 15:23:35;;;;;;;65.27;12.57;;;;;;;;;;5060484;28;20442;-95
2021/11/03 15:26:03;;;;;;;75.40;12.43;;;;;;;;;;5060406;28;20446;-91
2021/11/03 15:28:31;;;;;;;69.30;11.70;;;;;;;;;;5058974;28;20453;-94
2021/11/03 15:31:00;;;;;;;67.87;11.30;;;;;;;;;;5060910;28;20486;-94
2021/11/03 15:33:27;;;;;;;67.47;12.17;;;;;;;;;;5061091;28;20438;-95
2021/11/03 15:35:54;;;;;;;66.07;11.87;;;;;;;;;;5061329;28;20481;-95
2021/11/03 15:38:23;;;;;;;64.43;12.30;;;;;;;;;;5058527;22;20498;-93
2021/11/03 15:40:50;;;;;;;64.80;13.00;;;;;;;;;;5055869;28;20441;-93
2021/11/03 15:43:18;;;;;;;69.60;13.23;;;;;;;;;;5053988;28;20446;-93
2021/11/03 15:45:45;;;;;;;64.73;11.77;;;;;;;;;;5056454;28;20511;-94
2021/11/03 15:48:14;;;;;;;65.17;12.13;;;;;;;;;;5058091;28;20465;-93
2021/11/03 15:50:44;;;;;;;65.70;12.53;;;;;;;;;;5056079;28;20561;-92
2021/11/03 15:53:14;;;;;;;66.17;12.90;;;;;;;;;;5053019;28;20454;-92
2021/11/03 15:55:41;;;;;;;67.20;13.20;;;;;;;;;;5049968;28;20461;-93
2021/11/03 15:58:07;;;;;;;65.80;12.30;;;;;;;;;;5055407;28;20500;-92
2021/11/03 16:00:36;;;;;;;68.97;12.97;;;;;;;;;;5058220;28;20438;-93
2021/11/03 16:03:04;;;;;;;68.30;12.97;;;;;;;;;;5057178;28;20457;-91
2021/11/03 16:05:33;;;;;;;69.20;13.30;;;;;;;;;;5057708;28;20431;-92
2021/11/03 16:08:01;;;;;;;67.57;13.70;;;;;;;;;;5056227;28;20482;-92
2021/11/03 16:10:32;;;;;;;67.10;13.67;;;;;;;;;;5056284;28;20489;-95
2021/11/03 16:12:59;;;;;;;67.90;13.63;;;;;;;;;;5056588;28;20489;-91
2021/11/03 16:15:26;;;;;;;67.07;13.00;;;;;;;;;;5057857;28;21008;-92
2021/11/03 16:17:53;;;;;;;71.03;12.70;;;;;;;;;;5057433;28;20496;-92
2021/11/03 16:20:21;;;;;;;66.37;13.90;;;;;;;;;;5059288;28;20442;-92
2021/11/03 16:22:51;;;;;;;68.67;14.10;;;;;;;;;;5059291;28;20458;-92
2021/11/03 16:25:19;;;;;;;66.87;14.10;;;;;;;;;;5058728;28;20446;-90
2021/11/03 16:27:45;;;;;;;74.63;14.10;;;;;;;;;;5058243;28;20866;-93
2021/11/03 16:30:19;;;;;;;67.93;12.87;;;;;;;;;;5058294;28;21820;-93
2021/11/03 16:32:51;;;;;;;68.47;13.97;;;;;;;;;;5058239;28;20454;-91
2021/11/03 16:35:29;;;;;;;66.60;12.97;;;;;;;;;;5058455;28;20485;-92
2021/11/03 16:38:03;;;;;;;65.77;12.93;;;;;;;;;;5059359;28;20474;-96
2021/11/03 16:40:31;;;;;;;68.17;13.47;;;;;;;;;;5056681;28;20445;-93
2021/11/03 16:43:02;;;;;;;69.23;13.43;;;;;;;;;;5058991;28;20447;-90
2021/11/03 16:45:31;;;;;;;67.17;13.37;;;;;;;;;;5058832;28;20453;-91
2021/11/03 16:50:50;;;;;;;66.87;12.13;;;;;;;;;;5054937;28;20504;-96